createdAt,value
2019-05-17T00:01:27.180Z,47.60
2019-05-17T00:03:56.491Z,47.80
2019-05-17T00:06:27.485Z,47.80
2019-05-17T00:08:56.526Z,48.10
2019-05-17T00:11:27.363Z,47.90
2019-05-17T00:13:56.989Z,48.20
2019-05-17T00:16:26.808Z,48.30
2019-05-17T00:18:56.781Z,47.80
2019-05-17T00:21:27.502Z,47.90
2019-05-17T00:23:57.203Z,47.80
2019-05-17T00:26:26.954Z,47.80
2019-05-17T00:28:56.325Z,47.80
2019-05-17T00:31:26.288Z,47.80
2019-05-17T00:33:56.570Z,47.80
2019-05-17T00:36:26.970Z,47.90
2019-05-17T00:38:56.812Z,47.80
2019-05-17T00:41:26.902Z,47.70
2019-05-17T00:43:56.955Z,47.80
2019-05-17T00:46:26.687Z,48.00
2019-05-17T00:48:57.289Z,48.00
2019-05-17T00:51:27.377Z,47.90
2019-05-17T00:53:57.480Z,47.90
2019-05-17T00:56:26.710Z,47.80
2019-05-17T00:58:56.831Z,47.80
2019-05-17T01:01:27.017Z,47.90
2019-05-17T01:03:57.127Z,48.20
2019-05-17T01:06:27.499Z,48.10
2019-05-17T01:09:01.827Z,48.20
2019-05-17T01:11:27.426Z,48.00
2019-05-17T01:13:58.499Z,48.20
2019-05-17T01:16:27.271Z,48.10
2019-05-17T01:18:57.311Z,48.30
2019-05-17T01:21:26.630Z,48.40
2019-05-17T01:23:56.241Z,48.40
2019-05-17T01:26:26.697Z,48.20
2019-05-17T01:28:57.339Z,48.60
2019-05-17T01:31:26.673Z,48.50
2019-05-17T01:33:56.527Z,48.60
2019-05-17T01:36:26.363Z,48.50
2019-05-17T01:38:57.634Z,48.70
2019-05-17T01:41:26.666Z,49.10
2019-05-17T01:43:56.905Z,48.90
2019-05-17T01:46:26.504Z,48.90
2019-05-17T01:48:57.607Z,48.90
2019-05-17T01:51:26.394Z,49.00
2019-05-17T01:53:57.358Z,48.90
2019-05-17T01:56:26.455Z,49.00
2019-05-17T01:58:57.404Z,49.10
2019-05-17T02:01:27.604Z,48.90
2019-05-17T02:03:57.481Z,48.90
2019-05-17T02:06:27.094Z,49.10
2019-05-17T02:08:56.866Z,49.90
2019-05-17T02:11:26.992Z,49.20
2019-05-17T02:13:56.265Z,49.40
2019-05-17T02:16:26.795Z,49.60
2019-05-17T02:18:57.324Z,49.50
2019-05-17T02:21:27.446Z,49.60
2019-05-17T02:23:57.176Z,49.70
2019-05-17T02:26:26.718Z,49.50
2019-05-17T02:28:55.754Z,49.80
2019-05-17T02:31:24.947Z,49.70
2019-05-17T02:33:54.658Z,49.70
2019-05-17T02:36:23.595Z,49.90
2019-05-17T02:38:53.200Z,49.90
2019-05-17T02:41:22.782Z,50.00
2019-05-17T02:43:53.449Z,49.90
2019-05-17T02:46:23.160Z,50.00
2019-05-17T02:48:53.772Z,50.20
2019-05-17T02:51:23.899Z,50.00
2019-05-17T02:53:54.802Z,50.20
2019-05-17T02:56:27.869Z,50.40
2019-05-17T02:59:03.637Z,50.20
2019-05-17T03:01:45.015Z,50.50
2019-05-17T03:04:17.594Z,50.20
2019-05-17T03:06:46.587Z,50.60
2019-05-17T03:09:15.604Z,50.50
2019-05-17T03:11:44.617Z,50.60
2019-05-17T03:14:13.664Z,50.60
2019-05-17T03:16:43.224Z,50.50
2019-05-17T03:19:13.168Z,50.20
2019-05-17T03:21:43.042Z,50.20
2019-05-17T03:24:13.780Z,50.40
2019-05-17T03:26:43.209Z,50.50
2019-05-17T03:29:13.681Z,50.30
2019-05-17T03:31:50.999Z,50.30
2019-05-17T03:34:16.949Z,50.60
2019-05-17T03:36:47.007Z,50.60
2019-05-17T03:39:16.267Z,50.70
2019-05-17T03:41:45.386Z,50.60
2019-05-17T03:44:14.414Z,50.40
2019-05-17T03:46:43.540Z,50.30
2019-05-17T03:49:13.212Z,50.40
2019-05-17T03:51:42.835Z,50.00
2019-05-17T03:54:13.751Z,50.00
2019-05-17T03:56:42.989Z,50.00
2019-05-17T03:59:13.110Z,50.20
2019-05-17T04:01:43.628Z,50.10
2019-05-17T04:04:13.582Z,50.00
2019-05-17T04:06:43.702Z,49.90
2019-05-17T04:09:14.077Z,50.20
2019-05-17T04:11:43.510Z,50.30
2019-05-17T04:14:13.882Z,50.00
2019-05-17T04:16:43.215Z,50.20
2019-05-17T04:19:13.975Z,50.20
2019-05-17T04:21:43.021Z,50.10
2019-05-17T04:24:12.846Z,50.10
2019-05-17T04:26:43.758Z,50.30
2019-05-17T04:29:13.601Z,50.30
2019-05-17T04:31:43.715Z,50.30
2019-05-17T04:34:13.655Z,50.00
2019-05-17T04:36:43.369Z,49.90
2019-05-17T04:39:13.309Z,50.10
2019-05-17T04:41:49.259Z,49.80
2019-05-17T04:44:13.558Z,49.60
2019-05-17T04:46:43.116Z,49.40
2019-05-17T04:49:13.820Z,49.60
2019-05-17T04:51:44.155Z,49.00
2019-05-17T04:54:14.005Z,49.00
2019-05-17T04:56:43.239Z,49.10
2019-05-17T04:59:13.772Z,48.90
2019-05-17T05:01:43.706Z,48.80
2019-05-17T05:04:15.553Z,49.00
2019-05-17T05:06:44.853Z,49.10
2019-05-17T05:09:13.877Z,49.30
2019-05-17T05:11:53.318Z,49.20
2019-05-17T05:14:13.408Z,48.90
2019-05-17T05:16:42.540Z,49.00
2019-05-17T05:19:13.042Z,48.80
2019-05-17T05:21:42.745Z,48.80
2019-05-17T05:24:11.946Z,49.10
2019-05-17T05:26:42.489Z,49.10
2019-05-17T05:29:12.809Z,49.10
2019-05-17T05:31:42.803Z,49.20
2019-05-17T05:34:12.422Z,49.50
2019-05-17T05:36:42.975Z,49.40
2019-05-17T05:39:11.933Z,49.60
2019-05-17T05:41:42.674Z,49.10
2019-05-17T05:44:12.241Z,48.70
2019-05-17T05:46:42.139Z,49.00
2019-05-17T05:49:12.365Z,49.40
2019-05-17T05:51:42.497Z,49.00
2019-05-17T05:54:12.311Z,49.00
2019-05-17T05:56:42.254Z,48.40
2019-05-17T05:59:12.103Z,48.00
2019-05-17T06:01:42.119Z,48.10
2019-05-17T06:04:11.867Z,48.40
2019-05-17T06:06:41.615Z,48.70
2019-05-17T06:09:12.045Z,48.40
2019-05-17T06:11:41.778Z,48.30
2019-05-17T06:14:12.189Z,48.30
2019-05-17T06:16:42.561Z,48.20
2019-05-17T06:19:12.028Z,48.20
2019-05-17T06:21:42.734Z,47.80
2019-05-17T06:24:11.998Z,48.20
2019-05-17T06:26:42.168Z,48.20
2019-05-17T06:29:11.878Z,47.80
2019-05-17T06:31:43.373Z,48.50
2019-05-17T06:34:11.813Z,48.10
2019-05-17T06:36:42.350Z,48.20
2019-05-17T06:39:11.788Z,48.20
2019-05-17T06:41:41.896Z,48.30
2019-05-17T06:44:12.157Z,48.10
2019-05-17T06:46:41.796Z,48.20
2019-05-17T06:49:11.729Z,48.50
2019-05-17T06:51:42.572Z,48.70
2019-05-17T06:54:12.096Z,48.80
2019-05-17T06:56:41.814Z,48.70
2019-05-17T06:59:10.846Z,48.80
2019-05-17T07:01:40.982Z,48.90
2019-05-17T07:04:10.379Z,49.00
2019-05-17T07:06:40.443Z,49.20
2019-05-17T07:09:10.153Z,49.30
2019-05-17T07:11:39.814Z,49.10
2019-05-17T07:14:09.502Z,49.10
2019-05-17T07:16:39.633Z,49.20
2019-05-17T07:19:10.350Z,49.00
2019-05-17T07:21:40.440Z,49.00
2019-05-17T07:24:10.143Z,49.00
2019-05-17T07:26:39.416Z,48.50
2019-05-17T07:29:10.098Z,48.50
2019-05-17T07:31:40.417Z,48.40
2019-05-17T07:34:09.562Z,48.80
2019-05-17T07:36:39.779Z,48.70
2019-05-17T07:39:10.858Z,48.40
2019-05-17T07:41:40.216Z,48.70
2019-05-17T07:44:09.895Z,48.20
2019-05-17T07:46:40.183Z,48.20
2019-05-17T07:49:10.879Z,48.40
2019-05-17T07:51:40.210Z,48.10
2019-05-17T07:54:10.462Z,48.70
2019-05-17T07:56:40.320Z,48.90
2019-05-17T07:59:11.253Z,48.40
2019-05-17T08:01:41.353Z,47.40
2019-05-17T08:04:10.737Z,47.70
2019-05-17T08:06:40.408Z,47.80
2019-05-17T08:09:13.921Z,47.60
2019-05-17T08:11:40.266Z,47.30
2019-05-17T08:14:10.522Z,47.20
2019-05-17T08:16:39.754Z,47.30
2019-05-17T08:19:09.711Z,46.90
2019-05-17T08:21:39.799Z,46.80
2019-05-17T08:24:10.437Z,46.70
2019-05-17T08:26:40.407Z,46.50
2019-05-17T08:29:10.117Z,46.50
2019-05-17T08:31:40.389Z,46.40
2019-05-17T08:34:10.347Z,46.30
2019-05-17T08:36:40.498Z,46.30
2019-05-17T08:39:10.338Z,46.10
2019-05-17T08:41:40.500Z,46.30
2019-05-17T08:44:10.209Z,46.10
2019-05-17T08:46:39.571Z,46.10
2019-05-17T08:49:09.792Z,46.10
2019-05-17T08:51:39.736Z,46.20
2019-05-17T08:54:10.294Z,46.30
2019-05-17T08:56:40.376Z,46.00
2019-05-17T08:59:09.862Z,46.40
2019-05-17T09:01:41.663Z,45.80
2019-05-17T09:04:09.640Z,45.60
2019-05-17T09:06:39.739Z,45.60
2019-05-17T09:09:10.048Z,45.80
2019-05-17T09:11:39.617Z,45.90
2019-05-17T09:14:10.489Z,46.00
2019-05-17T09:16:40.206Z,46.10
2019-05-17T09:19:10.137Z,45.40
2019-05-17T09:21:39.814Z,45.30
2019-05-17T09:24:10.440Z,44.70
2019-05-17T09:26:39.912Z,44.50
2019-05-17T09:29:10.783Z,44.20
2019-05-17T09:31:40.371Z,44.70
2019-05-17T09:34:09.696Z,44.30
2019-05-17T09:36:40.802Z,44.30
2019-05-17T09:39:09.998Z,44.10
2019-05-17T09:41:39.784Z,44.00
2019-05-17T09:44:15.686Z,44.00
2019-05-17T09:46:39.976Z,44.20
2019-05-17T09:49:10.396Z,44.20
2019-05-17T09:51:39.970Z,44.90
2019-05-17T09:54:10.248Z,44.40
2019-05-17T09:56:39.524Z,44.70
2019-05-17T09:59:10.008Z,44.20
2019-05-17T10:01:39.683Z,44.20
2019-05-17T10:04:12.885Z,44.10
2019-05-17T10:06:40.057Z,43.80
2019-05-17T10:09:09.675Z,44.00
2019-05-17T10:11:39.967Z,44.10
2019-05-17T10:14:11.535Z,44.10
2019-05-17T10:16:39.902Z,43.50
2019-05-17T10:19:09.590Z,43.30
2019-05-17T10:21:39.902Z,43.20
2019-05-17T10:24:09.566Z,43.20
2019-05-17T10:26:38.991Z,43.40
2019-05-17T10:29:09.878Z,43.60
2019-05-17T10:31:39.880Z,43.70
2019-05-17T10:34:09.731Z,43.70
2019-05-17T10:36:40.134Z,43.70
2019-05-17T10:39:09.894Z,44.10
2019-05-17T10:41:40.670Z,44.00
2019-05-17T10:44:10.070Z,44.10
2019-05-17T10:46:40.634Z,43.70
2019-05-17T10:49:10.895Z,43.90
2019-05-17T10:51:40.304Z,44.00
2019-05-17T10:54:09.786Z,44.00
2019-05-17T10:56:39.045Z,44.20
2019-05-17T10:59:09.804Z,44.30
2019-05-17T11:01:38.786Z,44.30
2019-05-17T11:04:10.310Z,44.00
2019-05-17T11:06:39.423Z,44.10
2019-05-17T11:09:10.269Z,44.10
2019-05-17T11:11:39.203Z,44.20
2019-05-17T11:14:08.233Z,43.90
2019-05-17T11:16:37.276Z,43.70
2019-05-17T11:19:08.750Z,43.50
2019-05-17T11:21:37.102Z,43.20
2019-05-17T11:24:06.160Z,43.20
2019-05-17T11:26:35.094Z,43.50
2019-05-17T11:29:04.096Z,43.40
2019-05-17T11:31:33.014Z,43.50
2019-05-17T11:34:01.929Z,43.70
2019-05-17T11:36:30.843Z,43.50
2019-05-17T11:38:59.818Z,43.40
2019-05-17T11:41:28.771Z,43.70
2019-05-17T11:43:57.665Z,43.70
2019-05-17T11:46:35.736Z,43.70
2019-05-17T11:48:57.397Z,43.90
2019-05-17T11:51:27.499Z,43.90
2019-05-17T11:53:56.802Z,43.90
2019-05-17T11:56:25.676Z,44.00
2019-05-17T11:58:54.606Z,43.90
2019-05-17T12:01:23.696Z,43.90
2019-05-17T12:03:52.573Z,43.80
2019-05-17T12:06:21.636Z,43.50
2019-05-17T12:08:50.677Z,43.70
2019-05-17T12:11:19.546Z,43.60
2019-05-17T12:13:48.520Z,43.50
2019-05-17T12:16:17.431Z,43.50
2019-05-17T12:18:46.378Z,43.60
2019-05-17T12:21:15.337Z,43.50
2019-05-17T12:23:44.294Z,43.30
2019-05-17T12:26:13.304Z,43.20
2019-05-17T12:28:42.525Z,43.40
2019-05-17T12:31:12.827Z,43.50
2019-05-17T12:33:41.847Z,43.40
2019-05-17T12:36:10.814Z,43.40
2019-05-17T12:38:39.677Z,43.40
2019-05-17T12:41:10.572Z,43.40
2019-05-17T12:43:39.471Z,43.50
2019-05-17T12:46:08.509Z,43.30
2019-05-17T12:48:37.541Z,43.50
2019-05-17T12:51:07.238Z,43.20
2019-05-17T12:53:36.171Z,43.20
2019-05-17T12:56:05.215Z,43.20
2019-05-17T12:58:34.097Z,43.00
2019-05-17T13:01:03.075Z,43.10
2019-05-17T13:03:31.968Z,42.90
2019-05-17T13:06:00.954Z,43.10
2019-05-17T13:08:29.808Z,43.10
2019-05-17T13:10:58.762Z,43.00
2019-05-17T13:13:27.724Z,43.00
2019-05-17T13:15:56.603Z,42.80
2019-05-17T13:18:25.622Z,42.80
2019-05-17T13:20:54.592Z,42.60
2019-05-17T13:23:23.988Z,42.70
2019-05-17T13:25:52.907Z,42.40
2019-05-17T13:28:21.934Z,42.60
2019-05-17T13:30:51.058Z,42.40
2019-05-17T13:33:20.051Z,42.20
2019-05-17T13:35:48.930Z,41.90
2019-05-17T13:38:17.990Z,42.70
2019-05-17T13:40:46.981Z,42.30
2019-05-17T13:43:15.844Z,42.50
2019-05-17T13:45:45.246Z,42.40
2019-05-17T13:48:14.539Z,42.10
2019-05-17T13:50:43.534Z,42.20
2019-05-17T13:53:12.584Z,42.10
2019-05-17T13:55:41.541Z,41.70
2019-05-17T13:58:10.482Z,41.80
2019-05-17T14:00:39.604Z,41.80
2019-05-17T14:03:08.592Z,41.50
2019-05-17T14:05:37.548Z,41.40
2019-05-17T14:08:06.654Z,41.40
2019-05-17T14:10:35.633Z,42.00
2019-05-17T14:13:04.652Z,41.40
2019-05-17T14:15:33.679Z,41.60
2019-05-17T14:18:02.728Z,41.30
2019-05-17T14:20:31.751Z,41.30
2019-05-17T14:23:00.805Z,41.40
2019-05-17T14:25:29.942Z,41.30
2019-05-17T14:27:58.869Z,41.10
2019-05-17T14:30:27.882Z,41.30
2019-05-17T14:32:56.878Z,41.40
2019-05-17T14:35:25.902Z,41.20
2019-05-17T14:37:55.009Z,41.20
2019-05-17T14:40:24.125Z,41.00
2019-05-17T14:42:53.094Z,41.10
2019-05-17T14:45:25.889Z,41.10
2019-05-17T14:47:55.695Z,41.30
2019-05-17T14:50:24.671Z,41.50
2019-05-17T14:52:53.620Z,41.40
2019-05-17T14:55:22.903Z,41.10
2019-05-17T14:57:51.895Z,41.30
2019-05-17T15:00:21.350Z,41.00
2019-05-17T15:02:50.283Z,41.40
2019-05-17T15:05:19.302Z,41.20
2019-05-17T15:07:48.171Z,41.20
2019-05-17T15:10:17.607Z,41.30
2019-05-17T15:12:46.570Z,41.40
2019-05-17T15:15:25.889Z,41.30
2019-05-17T15:17:46.323Z,41.30
2019-05-17T15:20:15.740Z,41.20
2019-05-17T15:22:44.840Z,41.30
2019-05-17T15:25:14.359Z,41.50
2019-05-17T15:27:43.344Z,41.50
2019-05-17T15:30:12.707Z,41.50
2019-05-17T15:32:41.919Z,41.50
2019-05-17T15:35:11.228Z,41.70
2019-05-17T15:37:40.310Z,41.80
2019-05-17T15:40:09.825Z,41.70
2019-05-17T15:42:44.355Z,42.30
2019-05-17T15:45:09.845Z,42.00
2019-05-17T15:47:39.478Z,41.90
2019-05-17T15:50:21.281Z,42.10
2019-05-17T15:52:47.970Z,42.10
2019-05-17T15:55:17.177Z,42.20
2019-05-17T15:57:48.349Z,42.50
2019-05-17T16:00:18.074Z,42.50
2019-05-17T16:02:47.320Z,42.70
2019-05-17T16:05:16.789Z,42.70
2019-05-17T16:07:46.127Z,42.60
2019-05-17T16:10:15.416Z,42.70
2019-05-17T16:13:00.944Z,42.80
2019-05-17T16:15:15.806Z,42.80
2019-05-17T16:17:44.747Z,43.30
2019-05-17T16:20:16.843Z,43.40
2019-05-17T16:22:44.694Z,43.50
2019-05-17T16:25:14.256Z,43.10
2019-05-17T16:27:43.241Z,43.20
2019-05-17T16:30:12.650Z,43.10
2019-05-17T16:32:41.644Z,43.40
2019-05-17T16:35:10.824Z,43.20
2019-05-17T16:37:39.725Z,43.10
2019-05-17T16:40:08.750Z,43.20
2019-05-17T16:42:37.723Z,43.30
2019-05-17T16:45:08.470Z,44.00
2019-05-17T16:47:37.551Z,43.40
2019-05-17T16:50:06.682Z,43.40
2019-05-17T16:52:35.647Z,43.60
2019-05-17T16:55:05.475Z,43.60
2019-05-17T16:57:34.520Z,43.60
2019-05-17T17:00:03.702Z,43.60
2019-05-17T17:02:32.757Z,43.90
2019-05-17T17:05:01.753Z,43.90
2019-05-17T17:07:30.877Z,43.90
2019-05-17T17:09:59.836Z,44.00
2019-05-17T17:12:29.102Z,44.00
2019-05-17T17:14:58.503Z,44.60
2019-05-17T17:17:27.480Z,44.00
2019-05-17T17:19:56.370Z,44.10
2019-05-17T17:22:25.562Z,44.00
2019-05-17T17:24:54.605Z,44.00
2019-05-17T17:27:23.672Z,44.10
2019-05-17T17:29:52.585Z,44.20
2019-05-17T17:32:21.975Z,44.50
2019-05-17T17:34:51.259Z,44.50
2019-05-17T17:37:20.224Z,44.30
2019-05-17T17:39:49.301Z,44.50
2019-05-17T17:42:18.366Z,44.70
2019-05-17T17:44:47.478Z,44.80
2019-05-17T17:47:16.556Z,44.90
2019-05-17T17:49:45.619Z,44.90
2019-05-17T17:52:14.626Z,45.00
2019-05-17T17:54:43.701Z,44.90
2019-05-17T17:57:12.807Z,45.00
2019-05-17T17:59:41.854Z,45.00
2019-05-17T18:02:10.990Z,44.90
2019-05-17T18:04:40.090Z,44.90
2019-05-17T18:07:09.185Z,44.90
2019-05-17T18:09:38.245Z,44.80
2019-05-17T18:12:07.246Z,44.90
2019-05-17T18:14:36.333Z,44.90
2019-05-17T18:17:05.349Z,44.90
2019-05-17T18:19:34.416Z,45.00
2019-05-17T18:22:03.438Z,45.00
2019-05-17T18:24:32.535Z,44.90
2019-05-17T18:27:01.490Z,44.90
2019-05-17T18:29:30.622Z,45.00
2019-05-17T18:31:59.662Z,45.10
2019-05-17T18:34:28.642Z,45.10
2019-05-17T18:36:57.652Z,45.20
2019-05-17T18:39:26.559Z,45.10
2019-05-17T18:41:55.619Z,45.60
2019-05-17T18:44:27.737Z,45.30
2019-05-17T18:46:55.380Z,45.40
2019-05-17T18:49:24.487Z,45.40
2019-05-17T18:51:53.513Z,45.30
2019-05-17T18:54:22.519Z,45.40
2019-05-17T18:56:51.569Z,45.60
2019-05-17T18:59:20.547Z,45.60
2019-05-17T19:01:49.417Z,45.50
2019-05-17T19:04:18.385Z,45.50
2019-05-17T19:06:47.307Z,45.60
2019-05-17T19:09:16.349Z,45.60
2019-05-17T19:11:45.426Z,45.70
2019-05-17T19:14:14.521Z,45.70
2019-05-17T19:16:43.653Z,45.70
2019-05-17T19:19:12.660Z,45.90
2019-05-17T19:21:41.660Z,46.00
2019-05-17T19:24:10.779Z,46.00
2019-05-17T19:26:39.695Z,46.20
2019-05-17T19:29:08.763Z,46.20
2019-05-17T19:31:37.710Z,46.10
2019-05-17T19:34:06.767Z,46.20
2019-05-17T19:36:35.648Z,46.30
2019-05-17T19:39:05.854Z,46.40
2019-05-17T19:41:34.879Z,46.40
2019-05-17T19:44:03.917Z,46.40
2019-05-17T19:46:33.003Z,46.40
2019-05-17T19:49:02.088Z,46.60
2019-05-17T19:51:31.111Z,46.70
2019-05-17T19:54:02.102Z,46.80
2019-05-17T19:56:31.117Z,46.80
2019-05-17T19:58:59.993Z,46.70
2019-05-17T20:01:28.987Z,46.70
2019-05-17T20:03:58.032Z,46.70
2019-05-17T20:06:26.948Z,46.70
2019-05-17T20:08:55.885Z,46.70
2019-05-17T20:11:33.929Z,46.70
2019-05-17T20:13:55.482Z,46.80
2019-05-17T20:16:24.559Z,46.80
2019-05-17T20:18:53.439Z,47.00
2019-05-17T20:21:22.491Z,47.10
2019-05-17T20:23:51.567Z,47.00
2019-05-17T20:26:20.649Z,47.20
2019-05-17T20:28:49.538Z,47.10
2019-05-17T20:31:18.575Z,47.70
2019-05-17T20:33:47.529Z,47.10
2019-05-17T20:36:16.492Z,47.30
2019-05-17T20:38:45.517Z,47.20
2019-05-17T20:41:14.506Z,47.10
2019-05-17T20:43:43.482Z,47.10
2019-05-17T20:46:12.514Z,47.20
2019-05-17T20:48:41.588Z,47.20
2019-05-17T20:51:10.537Z,47.40
2019-05-17T20:53:39.404Z,47.40
2019-05-17T20:56:08.283Z,47.40
2019-05-17T20:58:37.172Z,47.60
2019-05-17T21:01:06.242Z,47.80
2019-05-17T21:03:35.187Z,47.30
2019-05-17T21:06:04.222Z,47.50
2019-05-17T21:08:45.164Z,47.40
2019-05-17T21:11:03.926Z,47.50
2019-05-17T21:13:32.901Z,47.50
2019-05-17T21:16:01.863Z,47.50
2019-05-17T21:18:30.919Z,47.60
2019-05-17T21:20:59.879Z,47.50
2019-05-17T21:23:28.764Z,47.60
2019-05-17T21:25:59.416Z,47.60
2019-05-17T21:28:28.209Z,47.70
2019-05-17T21:30:57.088Z,47.70
2019-05-17T21:33:26.114Z,47.80
2019-05-17T21:35:55.010Z,47.80
2019-05-17T21:38:23.909Z,47.80
2019-05-17T21:40:52.839Z,48.10
2019-05-17T21:43:21.784Z,48.10
2019-05-17T21:46:03.200Z,48.20
2019-05-17T21:48:23.142Z,48.10
2019-05-17T21:50:54.290Z,48.70
2019-05-17T21:53:23.719Z,48.10
2019-05-17T21:55:52.655Z,48.20
2019-05-17T21:58:21.654Z,48.20
2019-05-17T22:01:24.722Z,48.20
2019-05-17T22:03:53.650Z,48.20
2019-05-17T22:06:22.950Z,48.30
2019-05-17T22:08:52.003Z,48.30
2019-05-17T22:11:21.095Z,48.40
2019-05-17T22:13:50.110Z,48.40
2019-05-17T22:16:20.247Z,48.60
2019-05-17T22:18:49.585Z,48.80
2019-05-17T22:21:18.619Z,48.80
2019-05-17T22:23:47.692Z,48.70
2019-05-17T22:26:16.810Z,48.80
2019-05-17T22:28:45.804Z,48.90
2019-05-17T22:31:14.791Z,49.10
2019-05-17T22:33:43.854Z,49.30
2019-05-17T22:36:12.733Z,49.40
2019-05-17T22:38:41.765Z,49.60
2019-05-17T22:41:10.729Z,49.50
2019-05-17T22:43:39.846Z,49.60
2019-05-17T22:46:08.905Z,49.60
2019-05-17T22:48:37.952Z,49.60
2019-05-17T22:51:07.060Z,49.90
2019-05-17T22:53:36.068Z,49.90
2019-05-17T22:56:05.374Z,50.00
2019-05-17T22:58:34.343Z,50.20
2019-05-17T23:01:03.569Z,50.10
2019-05-17T23:03:32.603Z,50.20
2019-05-17T23:06:01.681Z,50.30
2019-05-17T23:08:30.902Z,50.50
2019-05-17T23:10:59.773Z,50.70
2019-05-17T23:13:28.642Z,50.70
2019-05-17T23:16:01.385Z,50.70
2019-05-17T23:18:32.269Z,50.80
2019-05-17T23:21:01.365Z,50.90
2019-05-17T23:23:30.301Z,51.00
2019-05-17T23:25:59.472Z,51.10
2019-05-17T23:28:28.639Z,51.20
2019-05-17T23:30:57.626Z,51.30
2019-05-17T23:33:26.719Z,51.40
2019-05-17T23:35:55.829Z,51.60
2019-05-17T23:38:24.762Z,51.70
2019-05-17T23:40:53.766Z,51.80
2019-05-17T23:43:22.935Z,51.90
2019-05-17T23:45:51.954Z,52.10
2019-05-17T23:48:21.126Z,52.10
2019-05-17T23:50:50.322Z,52.40
2019-05-17T23:53:19.332Z,52.40
2019-05-17T23:55:48.374Z,52.40
2019-05-17T23:58:17.440Z,52.50
